Hlavní strana
METAR-TAF:

METAR-TAF

Letiště :

Starkville, Mississippi, Spojené státy americké

zeměpisná šířka: 33-25-59N, zeměpisná délka: 088-50-55W, výška: 101 m

Aktuální stav počasí

Zpráva byla vytvořena před 27 minutami, v 10:55 UTC
Bezvětří
Teplota 20°C
Vlhkost vzduchu 100%
Tlak 1020 hPa
Viditelnost: 11.3 km
Oblačno až skoro zataženo ve výšce 6500 ft
Zataženo ve výšce 9000 ft

METAR: KSTF 241055Z AUTO 00000KT 7SM BKN065 OVC090 20/20 A3013 RMK AO2 PWINO

Čas: 06:22 (11:22 UTC)


TAF: chybějící

Stav a předpovědi počasí z více než 4 000 letišť (zprávy METAR a TAF).

Červené a žluté tečky na mapě představují dostupné meteorologické stanice.

Když kurzor umístíte na tečku, zobrazí se název stanice.

Pak kliknutím zobrazíte stav a předpověď počasí.

Chcete-li změnit mapu, kliknutím na zelené tlačítko se znaménkem +mapu přiblížíte, kliknutím na zelené tlačítko se znaménkem – mapu oddálíte a kliknutím na zelené šipky přejdete na sousední mapy.


METAR-TAF: